Latest Weather Observations for Mount Lofty

IDS60901

Issued at 9:35 pm CST Wednesday 23 April 2014 (issued every 10 minutes, with the page automatically refreshed every 10 minutes)

About weather observations | Map of Adelaide area stations | Latest observations for Adelaide area | Other Formats
Station Details ID: 023842 Name: MOUNT LOFTY Lat: -34.98 Lon: 138.71 Height: 685.0 m
Data from the previous 72 hours. | See also: Recent months at Mount Lofty
Date/Time
CST
Tmp

°C
App
Tmp
°C
Dew
Point
°C
Rel
Hum
%
Delta-T

°C
Wind Press
QNH
hPa
Press
MSL
hPa
Rain
since
9 am
mm
Dir
 
Spd
km/h
Gust
km/h
Spd
kts
Gust
kts
23/09:30pm 11.0 7.3 6.4 73 2.2 WNW 15 24 8 13 - - 0.0
23/09:00pm 11.4 7.6 5.9 69 2.7 WNW 15 24 8 13 - - 0.0
23/08:30pm 11.5 8.0 5.4 66 2.9 WNW 13 20 7 11 - - 0.0
23/08:00pm 11.6 8.2 5.7 67 2.9 WNW 13 20 7 11 - - 0.0
23/07:30pm 11.5 8.0 5.6 67 2.8 WNW 13 20 7 11 - - 0.0
23/07:00pm 11.4 8.2 5.1 65 3.0 WNW 11 17 6 9 - - 0.0
23/06:30pm 11.5 8.2 4.5 62 3.3 WNW 11 15 6 8 - - 0.0
23/06:00pm 11.7 8.6 3.5 57 3.8 WNW 9 15 5 8 - - 0.0
23/05:30pm 12.5 9.8 3.5 54 4.2 WNW 7 13 4 7 - - 0.0
23/05:00pm 13.0 10.0 2.0 47 5.0 WNW 7 15 4 8 - - 0.0
23/04:30pm 13.3 9.5 -0.7 38 6.0 WNW 9 15 5 8 - - 0.0
23/04:00pm 14.3 10.9 -0.9 35 6.5 WNW 7 15 4 8 - - 0.0
23/03:30pm 14.5 11.5 2.1 43 5.7 W 7 13 4 7 - - 0.0
23/03:00pm 14.7 12.1 4.1 49 5.1 WNW 7 13 4 7 - - 0.0
23/02:30pm 14.6 11.9 3.7 48 5.2 W 7 13 4 7 - - 0.0
23/02:00pm 14.2 11.7 4.8 53 4.5 W 7 17 4 9 - - 0.0
23/01:30pm 14.2 11.1 3.7 49 5.0 WNW 9 19 5 10 - - 0.0
23/01:00pm 13.9 11.6 5.5 57 4.1 W 7 15 4 8 - - 0.0
23/12:30pm 14.1 11.6 4.9 54 4.5 WNW 7 13 4 7 - - 0.0
23/12:00pm 13.9 11.6 5.5 57 4.1 WNW 7 15 4 8 - - 0.0
23/11:30am 13.3 10.8 5.0 57 4.0 W 7 15 4 8 - - 0.0
23/11:00am 12.4 10.1 4.9 60 3.6 W 6 13 3 7 - - 0.0
23/10:30am 12.3 10.0 5.7 64 3.2 NW 7 13 4 7 - - 0.0
23/10:00am 11.7 9.4 4.9 63 3.2 WNW 6 9 3 5 - - 0.0
23/09:30am 11.6 9.2 5.3 65 3.0 NW 7 11 4 6 - - 0.0
23/09:00am 10.7 8.6 5.7 71 2.4 NW 6 9 3 5 - - 0.0
23/08:30am 9.7 7.5 5.3 74 2.1 NW 6 9 3 5 - - 0.0
23/08:00am 9.9 7.6 4.7 70 2.4 WNW 6 9 3 5 - - 0.0
23/07:30am 9.4 7.4 4.2 70 2.4 NW 4 6 2 3 - - 0.0
23/07:00am 8.9 6.7 3.5 69 2.4 WNW 4 6 2 3 - - 0.0
23/06:30am 7.9 6.2 3.8 75 1.8 WNW 2 4 1 2 - - 0.0
23/06:00am 7.7 6.2 3.2 73 2.0 CALM 0 0 0 0 - - 0.0
23/05:30am 8.0 6.5 3.1 71 2.2 CALM 0 0 0 0 - - 0.0
23/05:00am 7.6 6.2 3.5 75 1.8 CALM 0 0 0 0 - - 0.0
23/04:30am 7.8 6.6 4.7 81 1.4 CALM 0 0 0 0 - - 0.0
23/04:00am 8.0 6.8 4.4 78 1.6 CALM 0 0 0 0 - - 0.0
23/03:30am 8.6 7.4 4.6 76 1.8 CALM 0 2 0 1 - - 0.0
23/03:00am 8.7 7.1 4.5 75 1.9 SSW 2 4 1 2 - - 0.0
23/02:30am 8.8 7.2 4.4 74 2.0 SSE 2 2 1 1 - - 0.0
23/02:00am 8.2 6.4 3.5 72 2.1 SE 2 4 1 2 - - 0.0
23/01:30am 8.0 6.4 6.5 90 0.7 ESE 4 6 2 3 - - 0.0
23/01:00am 8.0 6.9 6.8 92 0.6 ESE 2 4 1 2 - - 0.0
23/12:30am 8.0 6.1 6.8 92 0.6 ESE 6 7 3 4 - - 0.0
23/12:00am 8.2 6.2 6.3 88 0.9 SSE 6 7 3 4 - - 0.0
 
Date/Time
CST
Tmp

°C
App
Tmp
°C
Dew
Point
°C
Rel
Hum
%
Delta-T

°C
Wind Press
QNH
hPa
Press
MSL
hPa
Rain
since
9 am
mm
Dir
 
Spd
km/h
Gust
km/h
Spd
kts
Gust
kts
22/11:30pm 7.9 6.0 6.8 93 0.5 ESE 6 7 3 4 - - 0.0
22/11:00pm 8.0 6.5 6.9 93 0.5 ESE 4 6 2 3 - - 0.0
22/10:30pm 8.2 6.4 7.1 93 0.5 ESE 6 9 3 5 - - 0.0
22/10:00pm 8.1 6.1 6.9 92 0.6 E 7 13 4 7 - - 0.0
22/09:30pm 8.3 6.2 6.8 90 0.7 E 7 11 4 6 - - 0.0
22/09:00pm 8.7 6.8 6.5 86 1.1 ESE 6 9 3 5 - - 0.0
22/08:30pm 8.9 6.8 5.8 81 1.5 ESE 6 15 3 8 - - 0.0
22/08:00pm 8.9 6.9 6.2 83 1.3 ESE 6 9 3 5 - - 0.0
22/07:30pm 8.9 6.8 5.8 81 1.5 ESE 6 11 3 6 - - 0.0
22/07:00pm 9.1 7.1 6.9 86 1.1 ESE 7 13 4 7 - - 0.0
22/06:30pm 9.4 7.5 6.7 83 1.3 SE 6 11 3 6 - - 0.0
22/06:00pm 10.1 8.2 6.6 79 1.7 SE 6 11 3 6 - - 0.0
22/05:30pm 11.2 9.4 7.1 76 2.0 SE 6 11 3 6 - - 0.0
22/05:00pm 12.3 10.9 7.4 72 2.5 SE 4 11 2 6 - - 0.0
22/04:30pm 13.3 11.5 7.3 67 3.0 SSW 6 9 3 5 - - 0.0
22/04:00pm 14.5 12.9 7.8 64 3.5 SW 6 11 3 6 - - 0.0
22/03:30pm 15.3 13.6 8.3 63 3.7 SW 7 15 4 8 - - 0.0
22/03:00pm 16.0 14.4 8.2 60 4.1 WSW 6 15 3 8 - - 0.0
22/02:30pm 15.6 14.0 8.1 61 3.9 SW 6 15 3 8 - - 0.0
22/02:00pm 15.4 13.4 7.2 58 4.2 SSW 7 13 4 7 - - 0.0
22/01:30pm 15.8 13.9 7.6 58 4.2 WSW 7 15 4 8 - - 0.0
22/01:00pm 16.1 14.3 7.3 56 4.5 SW 6 11 3 6 - - 0.0
22/12:30pm 14.9 12.9 7.0 59 4.0 SW 7 13 4 7 - - 0.0
22/12:00pm 14.9 13.2 7.5 61 3.8 SSW 6 13 3 7 - - 0.0
22/11:30am 13.8 11.6 6.4 61 3.7 SSW 7 15 4 8 - - 0.0
22/11:00am 13.2 12.0 9.5 78 2.0 S 6 9 3 5 - - 0.0
22/10:30am 12.8 11.6 9.6 81 1.7 S 6 13 3 7 - - 0.0
22/10:00am 13.1 11.9 9.5 79 1.9 S 6 13 3 7 - - 0.0
22/09:30am 12.6 11.9 11.3 92 0.7 SSE 6 11 3 6 - - 0.0
22/09:00am 11.7 11.5 11.7 100 0.0 SE 4 9 2 5 - - 0.0
22/08:30am 11.3 10.6 11.3 100 0.0 SE 6 11 3 6 - - 0.0
22/08:00am 11.4 11.1 11.4 100 0.0 SSE 4 11 2 6 - - 0.0
22/07:30am 11.4 10.7 11.4 100 0.0 SSE 6 15 3 8 - - 0.0
22/07:00am 11.5 10.8 11.5 100 0.0 S 6 11 3 6 - - 0.0
22/06:30am 12.4 12.0 12.4 100 0.0 ESE 6 9 3 5 - - 0.0
22/06:00am 12.4 12.0 12.4 100 0.0 ESE 6 9 3 5 - - 0.0
22/05:30am 12.3 11.8 12.1 99 0.1 ESE 6 11 3 6 - - 0.0
22/05:00am 12.4 11.8 11.6 95 0.4 ESE 6 13 3 7 - - 0.0
22/04:30am 13.7 13.4 11.4 86 1.3 SSW 4 7 2 4 - - 0.0
22/04:00am 13.2 12.9 11.4 89 1.0 ESE 4 7 2 4 - - 0.0
22/03:30am 14.3 14.0 11.6 84 1.5 SSE 4 9 2 5 - - 0.0
22/03:00am 14.7 13.9 9.7 72 2.7 WSW 4 6 2 3 - - 0.0
22/02:30am 16.0 14.6 8.7 62 3.9 WNW 6 9 3 5 - - 0.0
22/02:00am 16.7 15.0 8.4 58 4.4 WNW 7 15 4 8 - - 0.0
22/01:30am 17.8 14.9 8.1 53 5.1 NNW 13 26 7 14 - - 0.0
22/01:00am 17.4 15.9 8.3 55 4.8 NW 6 11 3 6 - - 0.0
22/12:30am 17.0 15.5 8.4 57 4.6 NW 6 15 3 8 - - 0.0
22/12:00am 16.6 15.7 9.1 61 4.0 W 4 7 2 4 - - 0.0
 
Date/Time
CST
Tmp

°C
App
Tmp
°C
Dew
Point
°C
Rel
Hum
%
Delta-T

°C
Wind Press
QNH
hPa
Press
MSL
hPa
Rain
since
9 am
mm
Dir
 
Spd
km/h
Gust
km/h
Spd
kts
Gust
kts
21/11:30pm 17.0 14.7 8.9 59 4.3 NW 11 19 6 10 - - 0.0
21/11:00pm 16.1 15.0 8.3 60 4.1 W 4 7 2 4 - - 0.0
21/10:30pm 18.2 13.8 6.4 46 6.1 NW 19 33 10 18 - - 0.0
21/10:00pm 17.8 14.0 7.5 51 5.4 WNW 17 28 9 15 - - 0.0
21/09:30pm 17.8 13.9 7.2 50 5.5 NW 17 28 9 15 - - 0.0
21/09:00pm 18.2 14.6 6.7 47 5.9 NW 15 28 8 15 - - 0.0
21/08:30pm 18.9 14.8 6.1 43 6.6 NW 17 26 9 14 - - 0.0
21/08:00pm 20.0 15.3 6.0 40 7.2 NW 20 35 11 19 - - 0.0
21/07:30pm 20.1 15.5 6.5 41 7.1 NW 20 41 11 22 - - 0.0
21/07:00pm 20.1 15.7 6.5 41 7.1 NW 19 33 10 18 - - 0.0
21/06:30pm 20.2 16.2 6.5 41 7.1 NW 17 32 9 17 - - 0.0
21/06:00pm 20.7 16.5 5.9 38 7.6 NW 17 30 9 16 - - 0.0
21/05:30pm 21.3 16.7 6.4 38 7.8 NW 20 35 11 19 - - 0.0
21/05:00pm 21.4 16.8 6.5 38 7.8 NW 20 37 11 20 - - 0.0
21/04:30pm 21.7 16.8 6.8 38 7.9 NW 22 35 12 19 - - 0.0
21/04:00pm 21.9 17.8 7.7 40 7.6 NW 19 35 10 19 - - 0.0
21/03:30pm 22.2 17.9 8.0 40 7.7 NW 20 37 11 20 - - 0.0
21/03:00pm 21.6 16.8 7.4 40 7.6 NW 22 46 12 25 - - 0.0
21/02:30pm 22.2 16.6 7.2 38 8.0 NW 26 44 14 24 - - 0.0
21/02:00pm 21.8 17.0 7.2 39 7.8 NW 22 39 12 21 - - 0.0
21/01:31pm 21.4 15.5 7.3 40 7.5 NW 28 46 15 25 - - 0.0
21/01:30pm 21.4 15.8 7.3 40 7.5 NW 26 46 14 25 - - 0.0
21/01:26pm 21.3 15.2 6.8 39 7.6 NW 28 46 15 25 - - 0.0
21/01:00pm 22.3 17.4 6.9 37 8.2 NW 22 43 12 23 - - 0.0
21/12:30pm 22.3 17.4 6.9 37 8.2 NW 22 41 12 22 - - 0.0
21/12:00pm 22.0 16.8 7.4 39 7.8 NW 24 43 13 23 - - 0.0
21/11:30am 20.7 15.9 7.3 42 7.1 NW 22 41 12 22 - - 0.0
21/11:00am 20.0 14.8 7.1 43 6.8 NW 24 44 13 24 - - 0.0
21/10:30am 19.3 14.4 7.1 45 6.4 NW 22 39 12 21 - - 0.0
21/10:00am 18.7 13.9 7.2 47 6.0 NW 22 39 12 21 - - 0.0
21/09:30am 17.8 13.2 6.7 48 5.7 NW 20 41 11 22 - - 0.0
21/09:00am 17.5 11.7 6.1 47 5.8 NW 26 56 14 30 - - 0.0
21/08:30am 17.4 11.9 5.7 46 5.9 NNW 24 48 13 26 - - 0.0
21/08:00am 16.8 12.0 5.7 48 5.6 NNW 20 35 11 19 - - 0.0
21/07:30am 17.2 12.1 5.8 47 5.7 NNW 22 35 12 19 - - 0.0
21/07:00am 16.4 11.7 6.0 50 5.2 N 20 43 11 23 - - 0.0
21/06:30am 16.1 11.6 6.0 51 5.1 N 19 33 10 18 - - 0.0
21/06:00am 16.2 12.0 5.8 50 5.2 N 17 30 9 16 - - 0.0
21/05:30am 15.9 11.7 5.8 51 5.0 N 17 33 9 18 - - 0.0
21/05:00am 16.0 11.4 5.6 50 5.2 N 19 30 10 16 - - 0.0
21/04:30am 16.2 12.4 5.8 50 5.2 N 15 30 8 16 - - 0.0
21/04:00am 15.8 12.0 6.0 52 4.9 N 15 28 8 15 - - 0.0
21/03:30am 15.3 11.9 6.1 54 4.6 N 13 30 7 16 - - 0.0
21/03:00am 15.4 12.1 6.4 55 4.5 N 13 24 7 13 - - 0.0
21/02:30am 15.0 11.3 6.3 56 4.4 NNE 15 28 8 15 - - 0.0
21/02:00am 14.9 11.2 6.2 56 4.4 NNE 15 28 8 15 - - 0.0
21/01:30am 14.7 11.0 6.5 58 4.1 NE 15 33 8 18 - - 0.0
21/01:00am 14.3 11.4 6.6 60 3.9 NE 11 22 6 12 - - 0.0
21/12:30am 13.7 11.0 7.5 66 3.2 NE 11 20 6 11 - - 0.0
21/12:00am 13.6 11.3 7.6 67 3.1 ENE 9 19 5 10 - - 0.0
 
Date/Time
CST
Tmp

°C
App
Tmp
°C
Dew
Point
°C
Rel
Hum
%
Delta-T

°C
Wind Press
QNH
hPa
Press
MSL
hPa
Rain
since
9 am
mm
Dir
 
Spd
km/h
Gust
km/h
Spd
kts
Gust
kts
20/11:30pm 13.3 11.4 7.5 68 2.9 ENE 7 17 4 9 - - 0.0
20/11:00pm 13.8 11.9 7.6 66 3.2 ENE 7 13 4 7 - - 0.0
20/10:30pm 13.4 11.7 7.6 68 3.0 E 6 9 3 5 - - 0.0
20/10:00pm 14.1 12.2 7.4 64 3.4 NE 7 15 4 8 - - 0.0

Latest Capital City Observations: Canberra | Sydney | Melbourne | Brisbane | Adelaide | Perth | Hobart | Darwin

Other Formats:

Comma delimited format used in spreadsheet applications
http://www.bom.gov.au/fwo/IDS60901/IDS60901.95678.axf

JavaScript Object Notation format (JSON) in row-major order
http://www.bom.gov.au/fwo/IDS60901/IDS60901.95678.json